sensor_id;sensor_type;location;lat;lon;timestamp;P1;durP1;ratioP1;P2;durP2;ratioP2
21354;SDS011;10835;50.148;19.760;2022-10-16T00:01:20;12.57;;;7.78;;
21354;SDS011;10835;50.148;19.760;2022-10-16T00:03:50;12.27;;;7.88;;
21354;SDS011;10835;50.148;19.760;2022-10-16T00:06:19;13.98;;;7.38;;
21354;SDS011;10835;50.148;19.760;2022-10-16T00:08:49;13.18;;;8.35;;
21354;SDS011;10835;50.148;19.760;2022-10-16T00:11:18;14.00;;;7.68;;
21354;SDS011;10835;50.148;19.760;2022-10-16T00:13:49;11.57;;;7.85;;
21354;SDS011;10835;50.148;19.760;2022-10-16T00:16:20;12.93;;;7.85;;
21354;SDS011;10835;50.148;19.760;2022-10-16T00:18:48;13.73;;;7.95;;
21354;SDS011;10835;50.148;19.760;2022-10-16T00:21:17;13.05;;;7.22;;
21354;SDS011;10835;50.148;19.760;2022-10-16T00:24:06;11.10;;;7.20;;
21354;SDS011;10835;50.148;19.760;2022-10-16T00:26:36;12.50;;;8.10;;
21354;SDS011;10835;50.148;19.760;2022-10-16T00:29:05;11.90;;;7.97;;
21354;SDS011;10835;50.148;19.760;2022-10-16T00:31:35;12.55;;;7.18;;
21354;SDS011;10835;50.148;19.760;2022-10-16T00:34:03;12.68;;;6.95;;
21354;SDS011;10835;50.148;19.760;2022-10-16T00:36:31;11.20;;;7.47;;
21354;SDS011;10835;50.148;19.760;2022-10-16T00:38:59;14.15;;;7.22;;
21354;SDS011;10835;50.148;19.760;2022-10-16T00:41:28;14.73;;;6.72;;
21354;SDS011;10835;50.148;19.760;2022-10-16T00:43:57;12.18;;;7.75;;
21354;SDS011;10835;50.148;19.760;2022-10-16T00:46:27;11.63;;;6.78;;
21354;SDS011;10835;50.148;19.760;2022-10-16T00:49:00;12.50;;;7.07;;
21354;SDS011;10835;50.148;19.760;2022-10-16T00:51:31;11.63;;;7.57;;
21354;SDS011;10835;50.148;19.760;2022-10-16T00:54:01;12.38;;;7.40;;
21354;SDS011;10835;50.148;19.760;2022-10-16T00:56:31;11.27;;;6.72;;
21354;SDS011;10835;50.148;19.760;2022-10-16T00:59:01;11.65;;;7.25;;
21354;SDS011;10835;50.148;19.760;2022-10-16T01:01:33;13.45;;;7.25;;
21354;SDS011;10835;50.148;19.760;2022-10-16T01:04:03;9.00;;;6.60;;
21354;SDS011;10835;50.148;19.760;2022-10-16T01:06:32;10.65;;;6.90;;
21354;SDS011;10835;50.148;19.760;2022-10-16T01:09:10;11.43;;;7.20;;
21354;SDS011;10835;50.148;19.760;2022-10-16T01:11:44;11.70;;;6.35;;
21354;SDS011;10835;50.148;19.760;2022-10-16T01:14:21;10.35;;;6.25;;
21354;SDS011;10835;50.148;19.760;2022-10-16T01:16:55;10.90;;;6.40;;
21354;SDS011;10835;50.148;19.760;2022-10-16T01:19:38;10.93;;;6.00;;
21354;SDS011;10835;50.148;19.760;2022-10-16T01:22:15;11.20;;;6.35;;
21354;SDS011;10835;50.148;19.760;2022-10-16T01:24:45;12.13;;;6.95;;
21354;SDS011;10835;50.148;19.760;2022-10-16T01:27:18;12.85;;;6.13;;
21354;SDS011;10835;50.148;19.760;2022-10-16T01:29:51;13.18;;;7.53;;
21354;SDS011;10835;50.148;19.760;2022-10-16T01:32:24;7.90;;;5.65;;
21354;SDS011;10835;50.148;19.760;2022-10-16T01:34:58;11.18;;;7.50;;
21354;SDS011;10835;50.148;19.760;2022-10-16T01:37:32;9.82;;;6.25;;
21354;SDS011;10835;50.148;19.760;2022-10-16T01:40:05;9.88;;;5.88;;
21354;SDS011;10835;50.148;19.760;2022-10-16T01:42:38;11.23;;;6.53;;
21354;SDS011;10835;50.148;19.760;2022-10-16T01:45:10;10.98;;;5.97;;
21354;SDS011;10835;50.148;19.760;2022-10-16T01:47:41;6.65;;;5.15;;
21354;SDS011;10835;50.148;19.760;2022-10-16T01:50:10;12.07;;;5.85;;
21354;SDS011;10835;50.148;19.760;2022-10-16T01:52:43;8.70;;;5.15;;
21354;SDS011;10835;50.148;19.760;2022-10-16T01:55:14;7.22;;;5.25;;
21354;SDS011;10835;50.148;19.760;2022-10-16T01:57:48;16.98;;;5.97;;
21354;SDS011;10835;50.148;19.760;2022-10-16T02:00:19;10.98;;;6.53;;
21354;SDS011;10835;50.148;19.760;2022-10-16T02:02:49;9.75;;;6.03;;
21354;SDS011;10835;50.148;19.760;2022-10-16T02:05:22;11.40;;;6.07;;
21354;SDS011;10835;50.148;19.760;2022-10-16T02:07:53;12.68;;;6.10;;
21354;SDS011;10835;50.148;19.760;2022-10-16T02:10:24;9.82;;;6.07;;
21354;SDS011;10835;50.148;19.760;2022-10-16T02:12:59;7.47;;;5.38;;
21354;SDS011;10835;50.148;19.760;2022-10-16T02:15:30;14.88;;;6.03;;
21354;SDS011;10835;50.148;19.760;2022-10-16T02:17:58;7.53;;;5.57;;
21354;SDS011;10835;50.148;19.760;2022-10-16T02:20:27;9.18;;;5.35;;
21354;SDS011;10835;50.148;19.760;2022-10-16T02:22:57;8.63;;;5.60;;
21354;SDS011;10835;50.148;19.760;2022-10-16T02:25:29;14.35;;;5.97;;
21354;SDS011;10835;50.148;19.760;2022-10-16T02:28:00;10.25;;;6.75;;
21354;SDS011;10835;50.148;19.760;2022-10-16T02:30:34;14.63;;;6.28;;
21354;SDS011;10835;50.148;19.760;2022-10-16T02:33:07;8.10;;;5.47;;
21354;SDS011;10835;50.148;19.760;2022-10-16T02:35:37;8.95;;;6.07;;
21354;SDS011;10835;50.148;19.760;2022-10-16T02:38:05;13.93;;;5.30;;
21354;SDS011;10835;50.148;19.760;2022-10-16T02:40:36;10.07;;;5.80;;
21354;SDS011;10835;50.148;19.760;2022-10-16T02:43:06;10.18;;;6.07;;
21354;SDS011;10835;50.148;19.760;2022-10-16T02:45:35;8.57;;;5.38;;
21354;SDS011;10835;50.148;19.760;2022-10-16T02:48:03;10.38;;;7.18;;
21354;SDS011;10835;50.148;19.760;2022-10-16T02:50:32;11.55;;;7.43;;
21354;SDS011;10835;50.148;19.760;2022-10-16T02:52:59;12.20;;;7.55;;
21354;SDS011;10835;50.148;19.760;2022-10-16T02:55:28;10.80;;;6.88;;
21354;SDS011;10835;50.148;19.760;2022-10-16T02:57:55;14.73;;;7.40;;
21354;SDS011;10835;50.148;19.760;2022-10-16T03:00:25;10.38;;;7.05;;
21354;SDS011;10835;50.148;19.760;2022-10-16T03:02:53;8.27;;;6.18;;
21354;SDS011;10835;50.148;19.760;2022-10-16T03:05:21;10.02;;;6.28;;
21354;SDS011;10835;50.148;19.760;2022-10-16T03:07:49;8.15;;;5.50;;
21354;SDS011;10835;50.148;19.760;2022-10-16T03:10:18;8.15;;;5.53;;
21354;SDS011;10835;50.148;19.760;2022-10-16T03:12:46;10.40;;;5.47;;
21354;SDS011;10835;50.148;19.760;2022-10-16T03:15:14;13.98;;;5.55;;
21354;SDS011;10835;50.148;19.760;2022-10-16T03:17:44;9.02;;;5.18;;
21354;SDS011;10835;50.148;19.760;2022-10-16T03:20:12;9.57;;;6.32;;
21354;SDS011;10835;50.148;19.760;2022-10-16T03:22:40;11.70;;;5.78;;
21354;SDS011;10835;50.148;19.760;2022-10-16T03:25:08;8.95;;;5.70;;
21354;SDS011;10835;50.148;19.760;2022-10-16T03:27:36;15.10;;;7.75;;
21354;SDS011;10835;50.148;19.760;2022-10-16T03:30:04;7.55;;;5.60;;
21354;SDS011;10835;50.148;19.760;2022-10-16T03:32:33;7.55;;;5.47;;
21354;SDS011;10835;50.148;19.760;2022-10-16T03:35:07;11.20;;;5.72;;
21354;SDS011;10835;50.148;19.760;2022-10-16T03:37:35;7.75;;;5.82;;
21354;SDS011;10835;50.148;19.760;2022-10-16T03:40:04;8.52;;;6.00;;
21354;SDS011;10835;50.148;19.760;2022-10-16T03:42:32;9.57;;;6.30;;
21354;SDS011;10835;50.148;19.760;2022-10-16T03:45:00;13.80;;;6.70;;
21354;SDS011;10835;50.148;19.760;2022-10-16T03:47:28;9.45;;;5.53;;
21354;SDS011;10835;50.148;19.760;2022-10-16T03:49:59;8.45;;;5.63;;
21354;SDS011;10835;50.148;19.760;2022-10-16T03:52:28;8.27;;;5.43;;
21354;SDS011;10835;50.148;19.760;2022-10-16T03:54:56;8.00;;;5.43;;
21354;SDS011;10835;50.148;19.760;2022-10-16T03:57:24;8.23;;;5.57;;
21354;SDS011;10835;50.148;19.760;2022-10-16T03:59:53;8.35;;;5.13;;
21354;SDS011;10835;50.148;19.760;2022-10-16T04:02:21;8.65;;;5.68;;
21354;SDS011;10835;50.148;19.760;2022-10-16T04:04:49;6.97;;;4.75;;
21354;SDS011;10835;50.148;19.760;2022-10-16T04:07:17;6.68;;;4.63;;
21354;SDS011;10835;50.148;19.760;2022-10-16T04:09:46;7.75;;;5.32;;
21354;SDS011;10835;50.148;19.760;2022-10-16T04:12:14;7.32;;;5.32;;
21354;SDS011;10835;50.148;19.760;2022-10-16T04:14:42;12.00;;;7.45;;
21354;SDS011;10835;50.148;19.760;2022-10-16T04:17:10;8.77;;;6.13;;
21354;SDS011;10835;50.148;19.760;2022-10-16T04:19:38;16.38;;;8.82;;
21354;SDS011;10835;50.148;19.760;2022-10-16T04:22:06;10.90;;;6.50;;
21354;SDS011;10835;50.148;19.760;2022-10-16T04:24:34;14.30;;;6.88;;
21354;SDS011;10835;50.148;19.760;2022-10-16T04:27:03;13.10;;;7.47;;
21354;SDS011;10835;50.148;19.760;2022-10-16T04:29:31;10.57;;;6.03;;
21354;SDS011;10835;50.148;19.760;2022-10-16T04:31:59;9.57;;;6.50;;
21354;SDS011;10835;50.148;19.760;2022-10-16T04:34:27;10.88;;;6.22;;
21354;SDS011;10835;50.148;19.760;2022-10-16T04:36:55;9.55;;;5.65;;
21354;SDS011;10835;50.148;19.760;2022-10-16T04:39:23;7.85;;;5.47;;
21354;SDS011;10835;50.148;19.760;2022-10-16T04:41:51;13.68;;;6.13;;
21354;SDS011;10835;50.148;19.760;2022-10-16T04:44:20;8.40;;;5.50;;
21354;SDS011;10835;50.148;19.760;2022-10-16T04:46:49;13.07;;;5.57;;
21354;SDS011;10835;50.148;19.760;2022-10-16T04:49:18;8.73;;;5.75;;
21354;SDS011;10835;50.148;19.760;2022-10-16T04:51:46;15.02;;;5.60;;
21354;SDS011;10835;50.148;19.760;2022-10-16T04:54:14;10.85;;;5.95;;
21354;SDS011;10835;50.148;19.760;2022-10-16T04:56:42;8.68;;;5.70;;
21354;SDS011;10835;50.148;19.760;2022-10-16T04:59:13;9.68;;;6.05;;
21354;SDS011;10835;50.148;19.760;2022-10-16T05:01:43;10.48;;;5.95;;
21354;SDS011;10835;50.148;19.760;2022-10-16T05:04:11;11.27;;;6.10;;
21354;SDS011;10835;50.148;19.760;2022-10-16T05:06:41;12.85;;;6.22;;
21354;SDS011;10835;50.148;19.760;2022-10-16T05:09:09;9.23;;;5.63;;
21354;SDS011;10835;50.148;19.760;2022-10-16T05:11:37;12.15;;;5.32;;
21354;SDS011;10835;50.148;19.760;2022-10-16T05:14:05;14.40;;;6.90;;
21354;SDS011;10835;50.148;19.760;2022-10-16T05:16:33;7.95;;;5.22;;
21354;SDS011;10835;50.148;19.760;2022-10-16T05:19:03;8.68;;;5.35;;
21354;SDS011;10835;50.148;19.760;2022-10-16T05:21:51;10.20;;;5.50;;
21354;SDS011;10835;50.148;19.760;2022-10-16T05:24:19;10.93;;;6.40;;
21354;SDS011;10835;50.148;19.760;2022-10-16T05:26:47;13.00;;;6.53;;
21354;SDS011;10835;50.148;19.760;2022-10-16T05:29:15;11.25;;;6.18;;
21354;SDS011;10835;50.148;19.760;2022-10-16T05:31:43;8.23;;;5.30;;
21354;SDS011;10835;50.148;19.760;2022-10-16T05:34:12;12.10;;;6.28;;
21354;SDS011;10835;50.148;19.760;2022-10-16T05:36:40;9.63;;;7.03;;
21354;SDS011;10835;50.148;19.760;2022-10-16T05:39:08;7.53;;;5.40;;
21354;SDS011;10835;50.148;19.760;2022-10-16T05:41:36;8.30;;;5.88;;
21354;SDS011;10835;50.148;19.760;2022-10-16T05:44:04;10.70;;;6.80;;
21354;SDS011;10835;50.148;19.760;2022-10-16T05:46:33;12.30;;;8.07;;
21354;SDS011;10835;50.148;19.760;2022-10-16T05:49:01;12.65;;;6.38;;
21354;SDS011;10835;50.148;19.760;2022-10-16T05:51:32;8.38;;;5.60;;
21354;SDS011;10835;50.148;19.760;2022-10-16T05:54:00;10.00;;;6.15;;
21354;SDS011;10835;50.148;19.760;2022-10-16T05:56:28;10.77;;;5.72;;
21354;SDS011;10835;50.148;19.760;2022-10-16T05:58:56;13.02;;;8.20;;
21354;SDS011;10835;50.148;19.760;2022-10-16T06:01:24;12.38;;;8.63;;
21354;SDS011;10835;50.148;19.760;2022-10-16T06:03:52;11.30;;;6.90;;
21354;SDS011;10835;50.148;19.760;2022-10-16T06:06:21;8.10;;;6.20;;
21354;SDS011;10835;50.148;19.760;2022-10-16T06:08:52;9.02;;;5.40;;
21354;SDS011;10835;50.148;19.760;2022-10-16T06:11:22;6.70;;;4.55;;
21354;SDS011;10835;50.148;19.760;2022-10-16T06:13:52;7.25;;;5.03;;
21354;SDS011;10835;50.148;19.760;2022-10-16T06:16:23;9.00;;;5.70;;
21354;SDS011;10835;50.148;19.760;2022-10-16T06:18:51;10.90;;;5.93;;
21354;SDS011;10835;50.148;19.760;2022-10-16T06:21:20;9.68;;;6.97;;
21354;SDS011;10835;50.148;19.760;2022-10-16T06:23:52;9.02;;;5.38;;
21354;SDS011;10835;50.148;19.760;2022-10-16T06:26:21;7.57;;;5.53;;
21354;SDS011;10835;50.148;19.760;2022-10-16T06:28:50;13.75;;;7.00;;
21354;SDS011;10835;50.148;19.760;2022-10-16T06:31:18;10.52;;;7.20;;
21354;SDS011;10835;50.148;19.760;2022-10-16T06:33:49;8.60;;;4.90;;
21354;SDS011;10835;50.148;19.760;2022-10-16T06:36:18;7.20;;;5.05;;
21354;SDS011;10835;50.148;19.760;2022-10-16T06:38:47;8.40;;;6.35;;
21354;SDS011;10835;50.148;19.760;2022-10-16T06:41:21;9.35;;;6.10;;
21354;SDS011;10835;50.148;19.760;2022-10-16T06:43:49;9.80;;;4.93;;
21354;SDS011;10835;50.148;19.760;2022-10-16T06:46:19;11.25;;;5.82;;
21354;SDS011;10835;50.148;19.760;2022-10-16T06:48:50;11.13;;;6.63;;
21354;SDS011;10835;50.148;19.760;2022-10-16T06:51:19;12.10;;;9.15;;
21354;SDS011;10835;50.148;19.760;2022-10-16T06:53:50;8.75;;;6.65;;
21354;SDS011;10835;50.148;19.760;2022-10-16T06:56:32;11.43;;;7.95;;
21354;SDS011;10835;50.148;19.760;2022-10-16T06:59:01;19.55;;;13.82;;
21354;SDS011;10835;50.148;19.760;2022-10-16T07:01:30;27.05;;;13.90;;
21354;SDS011;10835;50.148;19.760;2022-10-16T07:03:58;20.58;;;12.00;;
21354;SDS011;10835;50.148;19.760;2022-10-16T07:06:29;20.67;;;11.40;;
21354;SDS011;10835;50.148;19.760;2022-10-16T07:09:00;18.50;;;10.32;;
21354;SDS011;10835;50.148;19.760;2022-10-16T07:11:31;16.45;;;10.80;;
21354;SDS011;10835;50.148;19.760;2022-10-16T07:14:00;13.73;;;7.78;;
21354;SDS011;10835;50.148;19.760;2022-10-16T07:16:28;12.07;;;7.63;;
21354;SDS011;10835;50.148;19.760;2022-10-16T07:18:58;9.88;;;6.68;;
21354;SDS011;10835;50.148;19.760;2022-10-16T07:21:28;11.52;;;5.72;;
21354;SDS011;10835;50.148;19.760;2022-10-16T07:23:59;11.88;;;6.30;;
21354;SDS011;10835;50.148;19.760;2022-10-16T07:26:29;11.80;;;5.53;;
21354;SDS011;10835;50.148;19.760;2022-10-16T07:29:03;9.27;;;5.63;;
21354;SDS011;10835;50.148;19.760;2022-10-16T07:31:31;10.48;;;6.18;;
21354;SDS011;10835;50.148;19.760;2022-10-16T07:33:59;7.47;;;5.35;;
21354;SDS011;10835;50.148;19.760;2022-10-16T07:36:27;11.75;;;5.22;;
21354;SDS011;10835;50.148;19.760;2022-10-16T07:38:55;8.20;;;4.93;;
21354;SDS011;10835;50.148;19.760;2022-10-16T07:41:27;8.40;;;4.50;;
21354;SDS011;10835;50.148;19.760;2022-10-16T07:43:57;5.78;;;4.22;;
21354;SDS011;10835;50.148;19.760;2022-10-16T07:46:27;13.80;;;5.18;;
21354;SDS011;10835;50.148;19.760;2022-10-16T07:48:55;7.00;;;5.18;;
21354;SDS011;10835;50.148;19.760;2022-10-16T07:51:24;6.45;;;4.65;;
21354;SDS011;10835;50.148;19.760;2022-10-16T07:53:52;6.70;;;4.28;;
21354;SDS011;10835;50.148;19.760;2022-10-16T07:56:21;6.63;;;4.60;;
21354;SDS011;10835;50.148;19.760;2022-10-16T07:58:49;8.95;;;4.80;;
21354;SDS011;10835;50.148;19.760;2022-10-16T08:01:19;6.00;;;4.47;;
21354;SDS011;10835;50.148;19.760;2022-10-16T08:03:48;7.88;;;4.63;;
21354;SDS011;10835;50.148;19.760;2022-10-16T08:06:19;7.93;;;5.22;;
21354;SDS011;10835;50.148;19.760;2022-10-16T08:08:53;6.65;;;4.47;;
21354;SDS011;10835;50.148;19.760;2022-10-16T08:11:22;7.72;;;4.80;;
21354;SDS011;10835;50.148;19.760;2022-10-16T08:13:50;6.57;;;4.65;;
21354;SDS011;10835;50.148;19.760;2022-10-16T08:16:20;8.20;;;4.15;;
21354;SDS011;10835;50.148;19.760;2022-10-16T08:18:48;9.15;;;4.10;;
21354;SDS011;10835;50.148;19.760;2022-10-16T08:21:18;7.63;;;5.13;;
21354;SDS011;10835;50.148;19.760;2022-10-16T08:23:49;8.35;;;4.20;;
21354;SDS011;10835;50.148;19.760;2022-10-16T08:26:24;7.40;;;4.43;;
21354;SDS011;10835;50.148;19.760;2022-10-16T08:28:53;6.68;;;4.60;;
21354;SDS011;10835;50.148;19.760;2022-10-16T08:31:23;9.40;;;5.05;;
21354;SDS011;10835;50.148;19.760;2022-10-16T08:33:52;8.00;;;4.97;;
21354;SDS011;10835;50.148;19.760;2022-10-16T08:36:20;6.53;;;4.13;;
21354;SDS011;10835;50.148;19.760;2022-10-16T08:38:49;7.07;;;4.38;;
21354;SDS011;10835;50.148;19.760;2022-10-16T08:41:25;6.95;;;4.55;;
21354;SDS011;10835;50.148;19.760;2022-10-16T08:44:05;6.32;;;4.28;;
21354;SDS011;10835;50.148;19.760;2022-10-16T08:46:55;7.68;;;4.15;;
21354;SDS011;10835;50.148;19.760;2022-10-16T08:49:30;6.18;;;4.15;;
21354;SDS011;10835;50.148;19.760;2022-10-16T08:51:58;6.97;;;4.65;;
21354;SDS011;10835;50.148;19.760;2022-10-16T08:54:28;10.38;;;5.00;;
21354;SDS011;10835;50.148;19.760;2022-10-16T08:57:14;7.35;;;4.55;;
21354;SDS011;10835;50.148;19.760;2022-10-16T08:59:49;9.63;;;4.72;;
21354;SDS011;10835;50.148;19.760;2022-10-16T09:02:26;8.65;;;5.03;;
21354;SDS011;10835;50.148;19.760;2022-10-16T09:05:02;6.57;;;4.47;;
21354;SDS011;10835;50.148;19.760;2022-10-16T09:07:43;7.97;;;4.68;;
21354;SDS011;10835;50.148;19.760;2022-10-16T09:10:21;7.30;;;4.60;;
21354;SDS011;10835;50.148;19.760;2022-10-16T09:12:58;6.57;;;4.75;;
21354;SDS011;10835;50.148;19.760;2022-10-16T09:15:36;6.30;;;4.60;;
21354;SDS011;10835;50.148;19.760;2022-10-16T09:18:12;7.38;;;4.65;;
21354;SDS011;10835;50.148;19.760;2022-10-16T09:20:46;7.75;;;4.65;;
21354;SDS011;10835;50.148;19.760;2022-10-16T09:23:19;5.80;;;4.20;;
21354;SDS011;10835;50.148;19.760;2022-10-16T09:25:53;11.15;;;4.78;;
21354;SDS011;10835;50.148;19.760;2022-10-16T09:28:23;6.10;;;4.60;;
21354;SDS011;10835;50.148;19.760;2022-10-16T09:30:51;9.23;;;5.18;;
21354;SDS011;10835;50.148;19.760;2022-10-16T09:33:24;7.32;;;4.95;;
21354;SDS011;10835;50.148;19.760;2022-10-16T09:35:57;6.80;;;4.25;;
21354;SDS011;10835;50.148;19.760;2022-10-16T09:38:26;7.63;;;5.10;;
21354;SDS011;10835;50.148;19.760;2022-10-16T09:40:56;9.60;;;4.78;;
21354;SDS011;10835;50.148;19.760;2022-10-16T09:43:32;8.93;;;4.70;;
21354;SDS011;10835;50.148;19.760;2022-10-16T09:46:04;6.72;;;4.40;;
21354;SDS011;10835;50.148;19.760;2022-10-16T09:48:35;7.07;;;4.68;;
21354;SDS011;10835;50.148;19.760;2022-10-16T09:51:05;9.18;;;4.68;;
21354;SDS011;10835;50.148;19.760;2022-10-16T09:53:43;6.80;;;4.30;;
21354;SDS011;10835;50.148;19.760;2022-10-16T09:56:21;8.60;;;4.30;;
21354;SDS011;10835;50.148;19.760;2022-10-16T09:58:50;6.95;;;4.50;;
21354;SDS011;10835;50.148;19.760;2022-10-16T10:01:19;4.75;;;4.10;;
21354;SDS011;10835;50.148;19.760;2022-10-16T10:03:55;8.65;;;4.15;;
21354;SDS011;10835;50.148;19.760;2022-10-16T10:06:28;7.68;;;4.38;;
21354;SDS011;10835;50.148;19.760;2022-10-16T10:08:59;5.93;;;4.55;;
21354;SDS011;10835;50.148;19.760;2022-10-16T10:11:36;8.07;;;4.70;;
21354;SDS011;10835;50.148;19.760;2022-10-16T10:14:05;5.90;;;4.43;;
21354;SDS011;10835;50.148;19.760;2022-10-16T10:16:37;8.73;;;4.07;;
21354;SDS011;10835;50.148;19.760;2022-10-16T10:19:09;6.05;;;4.03;;
21354;SDS011;10835;50.148;19.760;2022-10-16T10:21:42;9.40;;;4.35;;
21354;SDS011;10835;50.148;19.760;2022-10-16T10:24:11;6.38;;;3.95;;
21354;SDS011;10835;50.148;19.760;2022-10-16T10:26:41;9.75;;;4.13;;
21354;SDS011;10835;50.148;19.760;2022-10-16T10:29:20;5.90;;;4.03;;
21354;SDS011;10835;50.148;19.760;2022-10-16T10:31:58;5.60;;;3.88;;
21354;SDS011;10835;50.148;19.760;2022-10-16T10:34:38;5.40;;;3.95;;
21354;SDS011;10835;50.148;19.760;2022-10-16T10:37:29;5.80;;;4.38;;
21354;SDS011;10835;50.148;19.760;2022-10-16T10:40:07;4.85;;;3.40;;
21354;SDS011;10835;50.148;19.760;2022-10-16T10:42:52;5.05;;;3.90;;
21354;SDS011;10835;50.148;19.760;2022-10-16T10:45:27;7.40;;;4.00;;
21354;SDS011;10835;50.148;19.760;2022-10-16T10:48:17;8.82;;;4.22;;
21354;SDS011;10835;50.148;19.760;2022-10-16T10:51:00;4.53;;;3.80;;
21354;SDS011;10835;50.148;19.760;2022-10-16T10:53:35;9.93;;;4.13;;
21354;SDS011;10835;50.148;19.760;2022-10-16T10:56:17;10.27;;;4.88;;
21354;SDS011;10835;50.148;19.760;2022-10-16T10:59:13;6.38;;;4.65;;
21354;SDS011;10835;50.148;19.760;2022-10-16T11:02:04;7.00;;;4.13;;
21354;SDS011;10835;50.148;19.760;2022-10-16T11:04:54;6.28;;;4.60;;
21354;SDS011;10835;50.148;19.760;2022-10-16T11:07:43;7.63;;;4.32;;
21354;SDS011;10835;50.148;19.760;2022-10-16T11:10:18;5.28;;;3.70;;
21354;SDS011;10835;50.148;19.760;2022-10-16T11:12:51;7.32;;;4.15;;
21354;SDS011;10835;50.148;19.760;2022-10-16T11:15:23;5.75;;;4.22;;
21354;SDS011;10835;50.148;19.760;2022-10-16T11:17:55;6.10;;;4.13;;
21354;SDS011;10835;50.148;19.760;2022-10-16T11:20:32;10.45;;;4.80;;
21354;SDS011;10835;50.148;19.760;2022-10-16T11:23:07;10.27;;;4.63;;
21354;SDS011;10835;50.148;19.760;2022-10-16T11:25:41;6.00;;;4.25;;
21354;SDS011;10835;50.148;19.760;2022-10-16T11:28:11;5.70;;;4.25;;
21354;SDS011;10835;50.148;19.760;2022-10-16T11:30:44;6.18;;;4.40;;
21354;SDS011;10835;50.148;19.760;2022-10-16T11:33:24;6.50;;;4.35;;
21354;SDS011;10835;50.148;19.760;2022-10-16T11:36:00;5.40;;;4.22;;
21354;SDS011;10835;50.148;19.760;2022-10-16T11:38:37;7.97;;;4.32;;
21354;SDS011;10835;50.148;19.760;2022-10-16T11:41:12;7.45;;;4.63;;
21354;SDS011;10835;50.148;19.760;2022-10-16T11:43:48;6.13;;;4.30;;
21354;SDS011;10835;50.148;19.760;2022-10-16T11:46:21;7.93;;;4.32;;
21354;SDS011;10835;50.148;19.760;2022-10-16T11:48:54;5.82;;;4.40;;
21354;SDS011;10835;50.148;19.760;2022-10-16T11:51:30;6.57;;;4.93;;
21354;SDS011;10835;50.148;19.760;2022-10-16T11:54:04;5.93;;;4.28;;
21354;SDS011;10835;50.148;19.760;2022-10-16T11:56:38;6.63;;;4.38;;
21354;SDS011;10835;50.148;19.760;2022-10-16T11:59:11;4.78;;;3.83;;
21354;SDS011;10835;50.148;19.760;2022-10-16T12:01:44;5.40;;;4.07;;
21354;SDS011;10835;50.148;19.760;2022-10-16T12:04:19;6.65;;;4.25;;
21354;SDS011;10835;50.148;19.760;2022-10-16T12:06:55;9.52;;;4.97;;
21354;SDS011;10835;50.148;19.760;2022-10-16T12:09:28;6.22;;;4.20;;
21354;SDS011;10835;50.148;19.760;2022-10-16T12:11:58;7.20;;;4.97;;
21354;SDS011;10835;50.148;19.760;2022-10-16T12:14:37;5.93;;;4.75;;
21354;SDS011;10835;50.148;19.760;2022-10-16T12:17:27;8.05;;;4.75;;
21354;SDS011;10835;50.148;19.760;2022-10-16T12:20:18;8.27;;;4.88;;
21354;SDS011;10835;50.148;19.760;2022-10-16T12:22:50;8.35;;;4.13;;
21354;SDS011;10835;50.148;19.760;2022-10-16T12:25:23;5.15;;;3.67;;
21354;SDS011;10835;50.148;19.760;2022-10-16T12:27:55;6.25;;;4.50;;
21354;SDS011;10835;50.148;19.760;2022-10-16T12:30:24;5.30;;;3.75;;
21354;SDS011;10835;50.148;19.760;2022-10-16T12:33:01;8.30;;;4.45;;
21354;SDS011;10835;50.148;19.760;2022-10-16T12:35:31;7.05;;;4.40;;
21354;SDS011;10835;50.148;19.760;2022-10-16T12:38:08;8.10;;;4.47;;
21354;SDS011;10835;50.148;19.760;2022-10-16T12:40:45;5.65;;;4.00;;
21354;SDS011;10835;50.148;19.760;2022-10-16T12:43:26;6.13;;;4.30;;
21354;SDS011;10835;50.148;19.760;2022-10-16T12:46:03;9.23;;;4.18;;
21354;SDS011;10835;50.148;19.760;2022-10-16T12:48:46;8.43;;;4.32;;
21354;SDS011;10835;50.148;19.760;2022-10-16T12:51:34;5.50;;;3.85;;
21354;SDS011;10835;50.148;19.760;2022-10-16T12:54:03;6.63;;;3.72;;
21354;SDS011;10835;50.148;19.760;2022-10-16T12:56:43;4.55;;;3.55;;
21354;SDS011;10835;50.148;19.760;2022-10-16T12:59:21;7.38;;;4.13;;
21354;SDS011;10835;50.148;19.760;2022-10-16T13:02:02;4.75;;;3.58;;
21354;SDS011;10835;50.148;19.760;2022-10-16T13:04:47;9.43;;;3.70;;
21354;SDS011;10835;50.148;19.760;2022-10-16T13:07:37;6.60;;;4.28;;
21354;SDS011;10835;50.148;19.760;2022-10-16T13:10:19;4.68;;;3.90;;
21354;SDS011;10835;50.148;19.760;2022-10-16T13:13:09;5.68;;;3.33;;
21354;SDS011;10835;50.148;19.760;2022-10-16T13:15:51;4.03;;;3.05;;
21354;SDS011;10835;50.148;19.760;2022-10-16T13:18:32;5.75;;;3.53;;
21354;SDS011;10835;50.148;19.760;2022-10-16T13:21:14;6.88;;;3.03;;
21354;SDS011;10835;50.148;19.760;2022-10-16T13:23:51;5.68;;;3.45;;
21354;SDS011;10835;50.148;19.760;2022-10-16T13:26:26;7.03;;;3.58;;
21354;SDS011;10835;50.148;19.760;2022-10-16T13:29:02;6.88;;;3.75;;
21354;SDS011;10835;50.148;19.760;2022-10-16T13:31:30;5.85;;;3.53;;
21354;SDS011;10835;50.148;19.760;2022-10-16T13:34:00;4.25;;;3.33;;
21354;SDS011;10835;50.148;19.760;2022-10-16T13:36:29;9.25;;;3.58;;
21354;SDS011;10835;50.148;19.760;2022-10-16T13:39:10;4.53;;;3.67;;
21354;SDS011;10835;50.148;19.760;2022-10-16T13:41:40;5.72;;;3.70;;
21354;SDS011;10835;50.148;19.760;2022-10-16T13:44:12;6.13;;;3.55;;
21354;SDS011;10835;50.148;19.760;2022-10-16T13:46:44;8.48;;;3.63;;
21354;SDS011;10835;50.148;19.760;2022-10-16T13:49:16;6.80;;;3.53;;
21354;SDS011;10835;50.148;19.760;2022-10-16T13:51:53;5.53;;;3.63;;
21354;SDS011;10835;50.148;19.760;2022-10-16T13:54:22;5.78;;;3.28;;
21354;SDS011;10835;50.148;19.760;2022-10-16T13:56:51;7.40;;;3.20;;
21354;SDS011;10835;50.148;19.760;2022-10-16T13:59:36;6.22;;;3.65;;
21354;SDS011;10835;50.148;19.760;2022-10-16T14:02:05;6.05;;;3.90;;
21354;SDS011;10835;50.148;19.760;2022-10-16T14:04:42;4.38;;;3.30;;
21354;SDS011;10835;50.148;19.760;2022-10-16T14:07:12;4.32;;;3.58;;
21354;SDS011;10835;50.148;19.760;2022-10-16T14:09:48;6.03;;;3.50;;
21354;SDS011;10835;50.148;19.760;2022-10-16T14:12:17;5.07;;;3.58;;
21354;SDS011;10835;50.148;19.760;2022-10-16T14:14:51;5.68;;;3.80;;
21354;SDS011;10835;50.148;19.760;2022-10-16T14:17:22;5.32;;;3.25;;
21354;SDS011;10835;50.148;19.760;2022-10-16T14:19:52;7.40;;;4.03;;
21354;SDS011;10835;50.148;19.760;2022-10-16T14:22:30;6.78;;;4.22;;
21354;SDS011;10835;50.148;19.760;2022-10-16T14:25:00;6.60;;;3.92;;
21354;SDS011;10835;50.148;19.760;2022-10-16T14:27:30;5.70;;;3.85;;
21354;SDS011;10835;50.148;19.760;2022-10-16T14:30:15;6.00;;;4.18;;
21354;SDS011;10835;50.148;19.760;2022-10-16T14:32:52;5.35;;;3.78;;
21354;SDS011;10835;50.148;19.760;2022-10-16T14:35:25;6.20;;;3.53;;
21354;SDS011;10835;50.148;19.760;2022-10-16T14:37:59;5.85;;;4.05;;
21354;SDS011;10835;50.148;19.760;2022-10-16T14:40:29;4.95;;;3.90;;
21354;SDS011;10835;50.148;19.760;2022-10-16T14:42:58;4.68;;;3.65;;
21354;SDS011;10835;50.148;19.760;2022-10-16T14:45:29;6.90;;;3.60;;
21354;SDS011;10835;50.148;19.760;2022-10-16T14:47:59;6.97;;;3.42;;
21354;SDS011;10835;50.148;19.760;2022-10-16T14:50:30;6.53;;;3.88;;
21354;SDS011;10835;50.148;19.760;2022-10-16T14:52:58;5.50;;;3.67;;
21354;SDS011;10835;50.148;19.760;2022-10-16T14:55:26;6.25;;;3.70;;
21354;SDS011;10835;50.148;19.760;2022-10-16T14:57:55;6.25;;;4.32;;
21354;SDS011;10835;50.148;19.760;2022-10-16T15:00:26;7.50;;;4.18;;